Terminal Aerodrome Forecast
Issued by NWS Quad Cities IA IL

Home | Current Version | Previous Version | Text Only | Print | Product List | Glossary On
Versions: 1 2 3 4 5 6 7 8 9 10 11 12 13 14 15 16 17 18 19 20 21
223
FTUS43 KDVN 222337
TAFDBQ
TAF
KDBQ 222337Z 2300/2324 VRB02KT P6SM BKN200
      TEMPO 2308/2312 1SM MIFG SCT001
     FM231600 28008KT P6SM VCSH BKN060=

USA.gov is the U.S. government's official web portal to all federal, state and local government web resources and services.